Time;durP1;ratioP1;P1;durP2;ratioP2;P2;SDS_P1;SDS_P2;PMS_P1;PMS_P2;Temp;Humidity;BMP_temperature;BMP_pressure;BME280_temperature;BME280_humidity;BME280_pressure;Samples;Min_cycle;Max_cycle;Signal;HPM_P1;HPM_P2
2023/03/22 00:00:48;;;;;;;17.98;11.57;;;10.00;99.90;;;;;;4919510;28;89976;-28
2023/03/22 00:03:14;;;;;;;18.40;11.93;;;10.00;99.90;;;;;;4921030;28;91544;-27
2023/03/22 00:05:40;;;;;;;14.50;9.57;;;10.10;99.90;;;;;;4920492;28;89234;-31
2023/03/22 00:08:07;;;;;;;15.15;9.48;;;10.00;99.90;;;;;;4922039;28;90128;-31
2023/03/22 00:10:35;;;;;;;13.48;10.88;;;10.10;99.90;;;;;;4922232;28;89570;-31
2023/03/22 00:13:00;;;;;;;10.55;8.60;;;10.10;99.90;;;;;;4921808;28;90383;-29
2023/03/22 00:15:28;;;;;;;20.60;11.55;;;10.00;99.90;;;;;;4921228;28;90090;-29
2023/03/22 00:17:55;;;;;;;13.65;9.82;;;10.00;99.90;;;;;;4921419;28;89965;-30
2023/03/22 00:20:22;;;;;;;13.52;11.10;;;10.10;99.90;;;;;;4922686;28;89165;-31
2023/03/22 00:22:48;;;;;;;13.27;9.98;;;10.00;99.90;;;;;;4920873;28;90242;-30
2023/03/22 00:25:15;;;;;;;14.18;9.75;;;10.00;99.90;;;;;;4919818;28;90804;-30
2023/03/22 00:27:41;;;;;;;20.02;11.38;;;10.00;99.90;;;;;;4921595;28;91188;-31
2023/03/22 00:30:07;;;;;;;15.57;9.85;;;10.00;99.90;;;;;;4921467;28;89722;-30
2023/03/22 00:32:34;;;;;;;10.63;9.55;;;10.00;99.90;;;;;;4921281;28;91228;-30
2023/03/22 00:35:01;;;;;;;16.73;9.52;;;10.00;99.90;;;;;;4921354;28;89929;-30
2023/03/22 00:37:33;;;;;;;12.23;9.15;;;10.00;99.90;;;;;;4921300;28;89469;-31
2023/03/22 00:39:59;;;;;;;18.88;9.55;;;10.00;99.90;;;;;;4921714;28;89487;-32
2023/03/22 00:42:25;;;;;;;9.50;7.38;;;10.00;99.90;;;;;;4921918;28;90447;-30
2023/03/22 00:44:50;;;;;;;11.63;7.95;;;10.00;99.90;;;;;;4921548;28;89952;-32
2023/03/22 00:47:16;;;;;;;10.13;7.57;;;10.00;99.90;;;;;;4921203;28;89766;-28
2023/03/22 00:49:42;;;;;;;11.50;8.80;;;9.90;99.90;;;;;;4920334;28;90105;-32
2023/03/22 00:52:08;;;;;;;11.10;7.15;;;9.90;99.90;;;;;;4921283;28;89434;-31
2023/03/22 00:54:33;;;;;;;10.50;7.07;;;9.90;99.90;;;;;;4920804;28;89494;-30
2023/03/22 00:56:59;;;;;;;12.52;7.40;;;9.90;99.90;;;;;;4920980;28;89004;-32
2023/03/22 00:59:25;;;;;;;12.52;8.52;;;9.90;99.90;;;;;;4921007;28;89038;-32
2023/03/22 01:01:50;;;;;;;15.25;9.85;;;9.90;99.90;;;;;;4920525;28;88808;-31
2023/03/22 01:04:24;;;;;;;11.27;9.18;;;9.80;99.90;;;;;;4921641;28;89684;-28
2023/03/22 01:07:00;;;;;;;16.40;10.35;;;9.80;99.90;;;;;;4921505;28;89671;-27
2023/03/22 01:09:27;;;;;;;12.27;8.05;;;9.80;99.90;;;;;;4920909;28;88458;-27
2023/03/22 01:11:55;;;;;;;14.73;8.33;;;9.80;99.90;;;;;;4920571;28;91848;-29
2023/03/22 01:14:21;;;;;;;11.75;8.90;;;9.80;99.90;;;;;;4920041;28;92216;-28
2023/03/22 01:16:47;;;;;;;9.93;7.70;;;9.80;99.90;;;;;;4920558;28;90448;-29
2023/03/22 01:19:12;;;;;;;14.70;8.38;;;9.80;99.90;;;;;;4921113;28;89208;-32
2023/03/22 01:21:38;;;;;;;12.00;7.88;;;9.80;99.90;;;;;;4920679;28;90541;-31
2023/03/22 01:24:04;;;;;;;10.25;7.03;;;9.80;99.90;;;;;;4920443;28;89659;-28
2023/03/22 01:26:30;;;;;;;13.50;8.32;;;9.80;99.90;;;;;;4920108;28;88631;-29
2023/03/22 01:28:56;;;;;;;12.27;8.50;;;9.80;99.90;;;;;;4920901;28;89066;-29
2023/03/22 01:31:22;;;;;;;14.15;8.57;;;9.80;99.90;;;;;;4921242;28;91784;-28
2023/03/22 01:33:47;;;;;;;10.25;7.20;;;9.80;99.90;;;;;;4902892;28;89549;-29
2023/03/22 01:36:13;;;;;;;13.68;8.63;;;9.70;99.90;;;;;;4920731;28;89430;-30
2023/03/22 01:38:39;;;;;;;14.50;8.27;;;9.70;99.90;;;;;;4920037;28;89545;-30
2023/03/22 01:41:05;;;;;;;12.32;7.80;;;9.70;99.90;;;;;;4921500;28;89992;-30
2023/03/22 01:43:30;;;;;;;12.73;9.15;;;9.70;99.90;;;;;;4920275;28;89577;-31
2023/03/22 01:45:56;;;;;;;17.70;7.75;;;9.70;99.90;;;;;;4902559;28;89603;-33
2023/03/22 01:48:33;;;;;;;7.70;6.05;;;9.70;99.90;;;;;;4920435;28;89353;-30
2023/03/22 01:51:25;;;;;;;10.55;7.90;;;9.70;99.90;;;;;;4919888;28;90329;-31
2023/03/22 01:54:16;;;;;;;10.02;6.07;;;9.70;99.90;;;;;;4916729;28;89803;-32
2023/03/22 01:56:41;;;;;;;9.43;6.00;;;9.70;99.90;;;;;;4911295;28;89709;-32
2023/03/22 01:59:11;;;;;;;7.95;6.30;;;9.70;99.90;;;;;;4920695;28;89513;-32
2023/03/22 02:01:37;;;;;;;6.30;4.72;;;9.60;99.90;;;;;;4920391;28;90131;-28
2023/03/22 02:04:15;;;;;;;11.18;6.00;;;9.70;99.90;;;;;;4919303;28;90313;-31
2023/03/22 02:06:41;;;;;;;8.35;5.45;;;9.70;99.90;;;;;;4919899;28;89873;-32
2023/03/22 02:09:13;;;;;;;6.43;5.38;;;9.70;99.90;;;;;;4920503;28;88536;-33
2023/03/22 02:11:47;;;;;;;8.85;5.78;;;9.70;99.90;;;;;;4920173;28;90197;-29
2023/03/22 02:14:16;;;;;;;8.00;3.80;;;9.60;99.90;;;;;;4920195;28;90248;-30
2023/03/22 02:16:48;;;;;;;9.27;4.78;;;9.60;99.90;;;;;;4919814;28;89268;-32
2023/03/22 02:19:28;;;;;;;8.63;4.43;;;9.60;99.90;;;;;;4920275;28;88962;-28
2023/03/22 02:21:59;;;;;;;10.07;4.45;;;9.60;99.90;;;;;;4919826;28;89760;-28
2023/03/22 02:24:46;;;;;;;7.80;4.38;;;9.60;99.90;;;;;;4920733;28;90320;-31
2023/03/22 02:28:00;;;;;;;5.63;4.10;;;9.60;99.90;;;;;;4911837;28;90047;-29
2023/03/22 02:30:28;;;;;;;7.95;4.18;;;9.60;99.90;;;;;;4862317;28;89706;-32
2023/03/22 02:33:18;;;;;;;9.18;4.60;;;9.60;99.90;;;;;;4861949;28;90314;-29
2023/03/22 02:36:21;;;;;;;8.60;4.60;;;9.60;99.90;;;;;;4898867;28;89344;-29
2023/03/22 02:39:03;;;;;;;9.45;3.72;;;9.60;99.90;;;;;;4912022;28;89072;-30
2023/03/22 02:41:34;;;;;;;10.48;5.63;;;9.60;99.90;;;;;;4923744;28;90290;-27
2023/03/22 02:44:12;;;;;;;13.98;5.40;;;9.50;99.90;;;;;;4922877;28;90326;-30
2023/03/22 02:46:45;;;;;;;6.45;4.07;;;9.50;99.90;;;;;;4923325;28;88459;-29
2023/03/22 02:49:31;;;;;;;19.55;5.43;;;9.50;99.90;;;;;;4923800;28;89902;-28
2023/03/22 02:51:59;;;;;;;6.68;4.68;;;9.50;99.90;;;;;;4908774;28;89305;-30
2023/03/22 02:54:34;;;;;;;11.48;5.38;;;9.50;99.90;;;;;;4922324;28;90214;-31
2023/03/22 02:57:12;;;;;;;8.15;4.75;;;9.50;99.90;;;;;;4922366;28;90665;-33
2023/03/22 02:59:40;;;;;;;10.60;5.43;;;9.50;99.90;;;;;;4911893;28;89414;-31
2023/03/22 03:02:09;;;;;;;9.75;4.15;;;9.50;99.90;;;;;;4923510;28;89633;-30
2023/03/22 03:04:40;;;;;;;6.38;4.38;;;9.50;99.90;;;;;;4923519;28;89771;-28
2023/03/22 03:07:10;;;;;;;8.30;5.68;;;9.50;99.90;;;;;;4922488;28;89819;-29
2023/03/22 03:09:38;;;;;;;10.88;5.22;;;9.50;99.90;;;;;;4922516;28;89565;-29
2023/03/22 03:12:12;;;;;;;8.60;5.40;;;9.50;99.90;;;;;;4922766;28;88141;-29
2023/03/22 03:14:38;;;;;;;8.68;4.97;;;9.50;99.90;;;;;;4923067;28;90514;-32
2023/03/22 03:17:31;;;;;;;7.75;5.53;;;9.50;99.90;;;;;;4922532;28;88548;-27
2023/03/22 03:20:07;;;;;;;15.55;6.70;;;9.50;99.90;;;;;;4921899;28;89266;-30
2023/03/22 03:22:57;;;;;;;6.95;4.60;;;9.40;99.90;;;;;;4922847;28;89003;-30
2023/03/22 03:25:42;;;;;;;9.32;4.57;;;9.40;99.90;;;;;;4922792;28;89186;-30
2023/03/22 03:28:29;;;;;;;10.50;4.57;;;9.40;99.90;;;;;;4922966;28;89101;-28
2023/03/22 03:31:19;;;;;;;8.18;5.65;;;9.40;99.90;;;;;;4922607;28;89444;-30
2023/03/22 03:33:57;;;;;;;10.73;5.28;;;9.40;99.90;;;;;;4922688;28;88420;-32
2023/03/22 03:36:24;;;;;;;;;;;9.40;99.90;;;;;;4923231;28;89889;-29
2023/03/22 03:38:53;;;;;;;6.50;4.53;;;9.40;99.90;;;;;;4924080;28;89778;-30
2023/03/22 03:41:26;;;;;;;11.43;5.75;;;9.40;99.90;;;;;;4922289;28;89188;-33
2023/03/22 03:43:53;;;;;;;6.95;4.00;;;9.40;99.90;;;;;;4922770;28;89530;-28
2023/03/22 03:46:19;;;;;;;7.80;5.82;;;9.40;99.90;;;;;;4921556;28;90249;-31
2023/03/22 03:48:48;;;;;;;7.00;4.93;;;9.40;99.90;;;;;;4921778;28;90360;-29
2023/03/22 03:51:14;;;;;;;5.80;4.65;;;9.40;99.90;;;;;;4922122;28;90824;-31
2023/03/22 03:53:40;;;;;;;7.75;4.20;;;9.40;99.90;;;;;;4921663;28;89599;-29
2023/03/22 03:56:06;;;;;;;9.27;4.90;;;9.40;99.90;;;;;;4922595;28;90629;-29
2023/03/22 03:58:32;;;;;;;9.73;4.40;;;9.40;99.90;;;;;;4922538;28;91432;-29
2023/03/22 04:00:57;;;;;;;8.35;4.93;;;9.40;99.90;;;;;;4921992;28;88681;-30
2023/03/22 04:03:23;;;;;;;6.00;3.88;;;9.40;99.90;;;;;;4922292;28;88550;-30
2023/03/22 04:05:49;;;;;;;8.32;4.25;;;9.40;99.90;;;;;;4921523;28;91665;-30
2023/03/22 04:08:14;;;;;;;7.05;3.60;;;9.40;99.90;;;;;;4921866;28;89930;-31
2023/03/22 04:10:40;;;;;;;6.55;4.05;;;9.40;99.90;;;;;;4921828;28;89943;-29
2023/03/22 04:13:06;;;;;;;4.97;3.83;;;9.50;99.90;;;;;;4921695;28;90146;-28
2023/03/22 04:15:31;;;;;;;5.88;4.75;;;9.50;99.90;;;;;;4921708;28;90224;-31
2023/03/22 04:17:57;;;;;;;6.70;5.07;;;9.50;99.90;;;;;;4921572;28;89464;-31
2023/03/22 04:20:25;;;;;;;7.60;4.80;;;9.50;99.90;;;;;;4921704;28;89576;-32
2023/03/22 04:22:51;;;;;;;11.25;5.75;;;9.60;99.90;;;;;;4922248;28;89936;-28
2023/03/22 04:25:17;;;;;;;6.00;5.40;;;9.50;99.90;;;;;;4921192;28;91858;-30
2023/03/22 04:27:49;;;;;;;11.27;5.43;;;9.60;99.90;;;;;;4920892;28;89427;-33
2023/03/22 04:30:19;;;;;;;11.70;7.78;;;9.60;99.90;;;;;;4920836;28;89355;-28
2023/03/22 04:32:48;;;;;;;10.02;6.85;;;9.60;99.90;;;;;;4921637;28;88913;-32
2023/03/22 04:35:14;;;;;;;12.00;8.77;;;9.70;99.90;;;;;;4921845;28;90194;-32
2023/03/22 04:37:41;;;;;;;14.98;8.07;;;9.70;99.90;;;;;;4920885;28;89283;-32
2023/03/22 04:40:08;;;;;;;17.95;8.75;;;9.70;99.90;;;;;;4909272;28;90891;-29
2023/03/22 04:42:34;;;;;;;13.27;8.25;;;9.70;99.90;;;;;;4921164;28;88309;-29
2023/03/22 04:45:02;;;;;;;12.07;9.10;;;9.70;99.90;;;;;;4909128;28;89895;-32
2023/03/22 04:47:28;;;;;;;14.90;9.95;;;9.80;99.90;;;;;;4921396;28;90221;-29
2023/03/22 04:49:54;;;;;;;19.20;9.82;;;9.80;99.90;;;;;;4921353;28;90535;-28
2023/03/22 04:52:19;;;;;;;15.23;10.27;;;9.80;99.90;;;;;;4921111;28;88873;-30
2023/03/22 04:54:45;;;;;;;18.60;12.27;;;9.80;99.90;;;;;;4920176;28;90093;-28
2023/03/22 04:57:10;;;;;;;13.73;10.35;;;9.80;99.90;;;;;;4920140;28;89731;-32
2023/03/22 04:59:36;;;;;;;16.98;11.50;;;9.90;99.90;;;;;;4921285;28;89554;-28
2023/03/22 05:02:02;;;;;;;17.75;11.57;;;9.80;99.90;;;;;;4919676;28;89466;-31
2023/03/22 05:04:27;;;;;;;17.85;12.52;;;9.90;99.90;;;;;;4920492;28;90104;-32
2023/03/22 05:06:53;;;;;;;18.55;13.02;;;9.90;99.90;;;;;;4920346;28;89366;-29
2023/03/22 05:09:19;;;;;;;16.67;11.40;;;9.90;99.90;;;;;;4920139;28;89618;-31
2023/03/22 05:11:44;;;;;;;17.20;13.32;;;9.90;99.90;;;;;;4920440;28;88638;-28
2023/03/22 05:14:10;;;;;;;17.90;11.88;;;9.90;99.90;;;;;;4919917;28;88752;-28
2023/03/22 05:16:39;;;;;;;17.60;11.80;;;9.80;99.90;;;;;;4920411;28;89574;-29
2023/03/22 05:19:12;;;;;;;16.73;11.98;;;9.90;99.90;;;;;;4920535;28;87724;-29
2023/03/22 05:21:40;;;;;;;14.48;11.30;;;9.90;99.90;;;;;;4920324;28;88491;-28
2023/03/22 05:24:06;;;;;;;23.30;12.35;;;9.90;99.90;;;;;;4920730;28;90181;-28
2023/03/22 05:26:32;;;;;;;14.55;11.13;;;9.80;99.90;;;;;;4919633;28;90515;-28
2023/03/22 05:28:58;;;;;;;21.38;13.68;;;9.90;99.90;;;;;;4919121;28;90401;-32
2023/03/22 05:31:24;;;;;;;13.57;10.18;;;9.80;99.90;;;;;;4920225;28;89103;-27
2023/03/22 05:33:52;;;;;;;16.30;11.70;;;9.90;99.90;;;;;;4919690;28;90043;-29
2023/03/22 05:36:19;;;;;;;;;;;9.90;99.90;;;;;;4919932;28;89517;-30
2023/03/22 05:38:45;;;;;;;18.38;10.95;;;9.90;99.90;;;;;;4921789;28;90074;-31
2023/03/22 05:41:12;;;;;;;16.75;11.80;;;9.90;99.90;;;;;;4919676;28;88715;-31
2023/03/22 05:43:38;;;;;;;22.80;12.05;;;9.90;99.90;;;;;;4919673;28;90250;-29
2023/03/22 05:46:07;;;;;;;16.80;11.93;;;9.90;99.90;;;;;;4920016;28;90570;-29
2023/03/22 05:48:35;;;;;;;12.57;11.07;;;9.90;99.90;;;;;;4920181;28;90885;-28
2023/03/22 05:51:02;;;;;;;16.58;11.32;;;9.90;99.90;;;;;;4919247;28;90584;-31
2023/03/22 05:53:30;;;;;;;14.55;10.98;;;9.90;99.90;;;;;;4919397;28;90525;-31
2023/03/22 05:55:59;;;;;;;15.82;11.95;;;9.90;99.90;;;;;;4919311;28;89147;-28
2023/03/22 05:58:29;;;;;;;20.63;12.52;;;9.90;99.90;;;;;;4919538;28;89515;-29
2023/03/22 06:00:59;;;;;;;16.95;12.02;;;9.90;99.90;;;;;;4901003;28;89739;-31
2023/03/22 06:03:26;;;;;;;15.82;12.90;;;9.90;99.90;;;;;;4919643;28;91211;-30
2023/03/22 06:05:53;;;;;;;19.02;10.88;;;9.90;99.90;;;;;;4919685;28;90081;-32
2023/03/22 06:08:20;;;;;;;25.70;12.70;;;9.90;99.90;;;;;;4919613;28;89629;-28
2023/03/22 06:10:49;;;;;;;12.70;10.80;;;10.00;99.90;;;;;;4919371;28;89282;-29
2023/03/22 06:13:15;;;;;;;16.73;11.15;;;9.90;99.90;;;;;;4919542;28;90837;-30
2023/03/22 06:15:41;;;;;;;13.32;11.55;;;9.90;99.90;;;;;;4918915;28;91133;-29
2023/03/22 06:18:07;;;;;;;12.50;10.32;;;10.00;99.90;;;;;;4919602;28;91137;-30
2023/03/22 06:20:32;;;;;;;16.42;12.30;;;10.00;99.90;;;;;;4920297;28;88659;-28
2023/03/22 06:22:58;;;;;;;14.35;10.23;;;10.00;99.90;;;;;;4919292;28;90739;-28
2023/03/22 06:25:23;;;;;;;13.32;10.77;;;9.90;99.90;;;;;;4919033;28;89775;-30
2023/03/22 06:27:49;;;;;;;16.35;11.13;;;10.00;99.90;;;;;;4919202;28;89700;-29
2023/03/22 06:30:15;;;;;;;15.40;11.00;;;9.90;99.90;;;;;;4919409;28;89673;-31
2023/03/22 06:32:40;;;;;;;12.65;11.35;;;9.90;99.90;;;;;;4919744;28;90116;-27
2023/03/22 06:35:06;;;;;;;11.80;10.60;;;9.90;99.90;;;;;;4919143;28;89430;-31
2023/03/22 06:37:32;;;;;;;12.70;11.32;;;10.00;99.90;;;;;;4918994;28;89530;-32
2023/03/22 06:39:58;;;;;;;16.25;10.55;;;9.90;99.90;;;;;;4918762;28;90641;-29
2023/03/22 06:42:24;;;;;;;14.07;9.30;;;10.00;99.90;;;;;;4919497;28;90280;-28
2023/03/22 06:44:50;;;;;;;10.98;8.75;;;10.00;99.90;;;;;;4920097;28;90158;-33
2023/03/22 06:47:15;;;;;;;14.32;10.70;;;10.10;99.90;;;;;;4919515;28;89724;-29
2023/03/22 06:49:41;;;;;;;15.02;11.55;;;10.10;99.90;;;;;;4918281;28;89920;-32
2023/03/22 06:52:07;;;;;;;13.95;10.32;;;10.10;99.90;;;;;;4919436;28;90169;-30
2023/03/22 06:54:33;;;;;;;13.10;9.68;;;10.20;99.90;;;;;;4918134;28;89904;-27
2023/03/22 06:56:58;;;;;;;10.57;8.50;;;10.20;99.90;;;;;;4920516;28;89743;-32
2023/03/22 06:59:24;;;;;;;11.40;8.65;;;10.30;99.90;;;;;;4919082;28;89541;-29
2023/03/22 07:01:49;;;;;;;14.65;8.88;;;10.30;99.90;;;;;;4919506;28;90440;-31
2023/03/22 07:04:15;;;;;;;10.20;8.48;;;10.30;99.90;;;;;;4919187;28;90741;-31
2023/03/22 07:06:41;;;;;;;14.80;10.38;;;10.30;99.90;;;;;;4919454;28;90447;-31
2023/03/22 07:09:06;;;;;;;11.13;7.85;;;10.40;99.90;;;;;;4919222;28;89127;-32
2023/03/22 07:11:32;;;;;;;8.90;7.20;;;10.40;99.90;;;;;;4921530;28;89642;-29
2023/03/22 07:13:58;;;;;;;10.55;8.60;;;10.40;99.90;;;;;;4921985;28;90680;-29
2023/03/22 07:16:23;;;;;;;10.82;8.48;;;10.50;99.90;;;;;;4922022;28;89656;-32
2023/03/22 07:18:49;;;;;;;9.20;8.27;;;10.50;99.90;;;;;;4922804;28;88718;-27
2023/03/22 07:21:15;;;;;;;9.55;8.50;;;10.50;99.90;;;;;;4923226;28;91437;-30
2023/03/22 07:23:40;;;;;;;10.10;7.03;;;10.50;99.90;;;;;;4921893;28;89784;-30
2023/03/22 07:26:06;;;;;;;13.45;7.68;;;10.60;99.90;;;;;;4922391;28;89080;-29
2023/03/22 07:28:32;;;;;;;14.27;7.68;;;10.60;99.90;;;;;;4921430;28;89224;-29
2023/03/22 07:31:04;;;;;;;11.68;7.72;;;10.60;99.90;;;;;;4922673;28;91550;-27
2023/03/22 07:33:29;;;;;;;10.65;7.60;;;10.70;99.90;;;;;;4922097;28;89306;-29
2023/03/22 07:35:55;;;;;;;12.13;7.53;;;10.70;99.90;;;;;;4922062;28;89430;-32
2023/03/22 07:38:21;;;;;;;9.43;7.03;;;10.70;99.90;;;;;;4922701;28;88733;-32
2023/03/22 07:40:49;;;;;;;11.32;6.53;;;10.70;99.90;;;;;;4922007;28;89969;-31
2023/03/22 07:43:14;;;;;;;10.70;7.13;;;10.70;99.90;;;;;;4923346;28;90097;-32
2023/03/22 07:45:40;;;;;;;8.18;5.90;;;10.70;99.90;;;;;;4922669;28;89356;-32
2023/03/22 07:48:09;;;;;;;9.75;6.35;;;10.70;99.90;;;;;;4922836;28;89026;-32
2023/03/22 07:50:35;;;;;;;12.23;7.78;;;10.70;99.90;;;;;;4922615;28;90378;-29
2023/03/22 07:53:02;;;;;;;8.20;6.18;;;10.80;99.90;;;;;;4921572;28;90127;-29
2023/03/22 07:55:28;;;;;;;7.50;5.95;;;10.90;99.90;;;;;;4922265;28;89841;-30
2023/03/22 07:57:55;;;;;;;10.75;6.72;;;11.00;99.90;;;;;;4922515;28;89102;-30
2023/03/22 08:00:21;;;;;;;6.32;5.25;;;11.00;99.90;;;;;;4922095;28;91095;-28
2023/03/22 08:02:46;;;;;;;6.07;5.07;;;11.10;99.90;;;;;;4922712;28;90233;-33
2023/03/22 08:05:12;;;;;;;14.07;5.55;;;11.10;99.90;;;;;;4922419;28;89310;-28
2023/03/22 08:07:38;;;;;;;7.45;5.18;;;11.20;99.90;;;;;;4922740;28;90072;-29
2023/03/22 08:10:04;;;;;;;15.80;7.55;;;11.20;99.90;;;;;;4922609;28;91470;-30
2023/03/22 08:12:31;;;;;;;7.13;5.32;;;11.10;99.90;;;;;;4921950;28;90492;-31
2023/03/22 08:14:56;;;;;;;7.28;5.75;;;11.00;99.90;;;;;;4922326;28;89554;-28
2023/03/22 08:17:22;;;;;;;11.23;6.53;;;11.00;99.90;;;;;;4922533;28;89391;-30
2023/03/22 08:19:48;;;;;;;7.18;4.53;;;11.00;99.90;;;;;;4921932;28;90030;-30
2023/03/22 08:22:14;;;;;;;7.90;5.10;;;11.00;99.90;;;;;;4920800;28;89988;-32
2023/03/22 08:24:40;;;;;;;12.07;5.50;;;11.00;99.90;;;;;;4921801;28;90460;-30
2023/03/22 08:27:06;;;;;;;10.35;5.13;;;11.00;99.90;;;;;;4922804;28;88770;-30
2023/03/22 08:29:31;;;;;;;6.95;5.90;;;11.00;99.90;;;;;;4921919;28;89882;-28
2023/03/22 08:32:00;;;;;;;10.93;5.38;;;11.00;99.90;;;;;;4921475;28;89917;-28
2023/03/22 08:34:27;;;;;;;9.63;5.55;;;11.00;99.90;;;;;;4922136;28;89722;-30
2023/03/22 08:36:53;;;;;;;14.40;5.75;;;11.00;99.90;;;;;;4921595;28;89446;-32
2023/03/22 08:39:20;;;;;;;9.25;5.45;;;11.00;99.90;;;;;;4919024;28;89218;-32
2023/03/22 08:41:45;;;;;;;13.52;6.00;;;11.00;99.90;;;;;;4918535;28;91700;-30
2023/03/22 08:44:11;;;;;;;13.90;5.47;;;11.00;99.90;;;;;;4919292;28;90638;-29
2023/03/22 08:46:37;;;;;;;7.10;4.60;;;11.00;99.90;;;;;;4919694;28;89442;-32
2023/03/22 08:49:03;;;;;;;11.43;5.47;;;11.00;99.90;;;;;;4919214;28;89036;-32
2023/03/22 08:51:30;;;;;;;5.00;4.03;;;11.00;99.90;;;;;;4920111;28;89060;-30
2023/03/22 08:53:58;;;;;;;6.18;4.53;;;11.00;99.90;;;;;;4917589;28;89791;-30
2023/03/22 08:56:26;;;;;;;6.40;4.95;;;11.10;99.90;;;;;;4918880;28;87871;-30
2023/03/22 08:58:52;;;;;;;9.25;5.45;;;11.10;99.90;;;;;;4919085;28;89861;-32
2023/03/22 09:01:19;;;;;;;6.32;4.90;;;11.10;99.90;;;;;;4919970;28;90801;-29
2023/03/22 09:03:45;;;;;;;8.97;6.50;;;11.10;99.90;;;;;;4920669;28;89641;-31
2023/03/22 09:06:12;;;;;;;5.85;5.18;;;11.10;99.90;;;;;;4921005;28;90418;-33
2023/03/22 09:08:38;;;;;;;17.73;6.13;;;11.10;99.90;;;;;;4921895;28;89874;-30
2023/03/22 09:11:06;;;;;;;7.07;4.95;;;11.10;99.90;;;;;;4920140;28;89208;-32
2023/03/22 09:13:33;;;;;;;6.70;4.20;;;11.30;99.90;;;;;;4921034;28;90030;-33
2023/03/22 09:15:59;;;;;;;9.18;5.32;;;11.40;99.90;;;;;;4921327;28;89006;-30
2023/03/22 09:18:25;;;;;;;5.18;4.40;;;11.50;99.90;;;;;;4921077;28;90249;-28
2023/03/22 09:20:51;;;;;;;10.32;4.85;;;11.70;99.90;;;;;;4919490;28;89651;-32
2023/03/22 09:23:18;;;;;;;8.05;4.25;;;11.80;99.90;;;;;;4921678;28;89301;-30
2023/03/22 09:25:45;;;;;;;11.38;5.25;;;11.90;99.90;;;;;;4921442;28;89671;-30
2023/03/22 09:28:10;;;;;;;13.75;4.55;;;11.90;99.90;;;;;;4921305;28;90149;-33
2023/03/22 09:30:36;;;;;;;13.73;5.50;;;11.80;99.90;;;;;;4920780;28;90605;-29
2023/03/22 09:33:03;;;;;;;9.68;4.47;;;11.80;99.90;;;;;;4920238;28;91608;-30
2023/03/22 09:35:29;;;;;;;8.02;5.45;;;11.80;99.90;;;;;;4921735;28;88277;-31
2023/03/22 09:37:55;;;;;;;9.63;4.45;;;11.80;99.90;;;;;;4903700;28;90209;-33
2023/03/22 09:40:27;;;;;;;10.20;5.30;;;11.80;99.90;;;;;;4920868;28;89425;-30
2023/03/22 09:42:56;;;;;;;9.35;4.50;;;11.80;99.90;;;;;;4920176;28;90720;-30
2023/03/22 09:45:41;;;;;;;7.10;5.20;;;11.80;99.90;;;;;;4920693;28;90082;-31
2023/03/22 09:48:20;;;;;;;5.65;4.20;;;11.70;99.90;;;;;;4921692;28;90315;-34
2023/03/22 09:50:49;;;;;;;7.07;4.57;;;11.70;99.90;;;;;;4920699;28;90343;-30
2023/03/22 09:53:16;;;;;;;11.20;4.95;;;11.80;99.90;;;;;;4920304;28;90508;-34
2023/03/22 09:55:51;;;;;;;7.68;5.50;;;11.80;99.90;;;;;;4920399;28;89899;-33
2023/03/22 09:58:29;;;;;;;15.10;6.63;;;11.80;99.90;;;;;;4920475;28;90290;-30
2023/03/22 10:01:16;;;;;;;9.38;5.85;;;11.80;99.90;;;;;;4920563;28;89479;-31
2023/03/22 10:04:02;;;;;;;8.23;4.85;;;11.80;99.90;;;;;;4920771;28;89304;-30
2023/03/22 10:06:27;;;;;;;8.60;5.47;;;11.80;99.90;;;;;;4921263;28;89354;-31
2023/03/22 10:09:38;;;;;;;9.85;4.18;;;11.80;99.90;;;;;;4919417;28;89957;-31
2023/03/22 10:12:23;;;;;;;7.93;4.50;;;11.70;99.90;;;;;;4892629;28;89891;-28
2023/03/22 10:15:12;;;;;;;8.48;4.90;;;11.60;99.90;;;;;;4920290;28;89479;-31
2023/03/22 10:17:41;;;;;;;7.13;4.57;;;11.70;99.90;;;;;;4890782;28;89417;-30
2023/03/22 10:20:10;;;;;;;14.00;5.60;;;11.70;99.90;;;;;;4919805;28;90109;-33
2023/03/22 10:22:40;;;;;;;7.80;4.93;;;11.60;99.90;;;;;;4919759;28;90721;-30
2023/03/22 10:25:08;;;;;;;9.07;4.88;;;11.60;99.90;;;;;;4920459;28;90487;-30
2023/03/22 10:27:35;;;;;;;7.07;6.13;;;11.60;99.90;;;;;;4920568;28;88799;-32
2023/03/22 10:30:21;;;;;;;5.13;4.23;;;11.50;99.90;;;;;;4920115;28;90012;-29
2023/03/22 10:33:10;;;;;;;13.80;5.47;;;11.50;99.90;;;;;;4919817;28;91184;-31
2023/03/22 10:35:36;;;;;;;12.38;5.65;;;11.50;99.90;;;;;;4902621;28;89555;-32
2023/03/22 10:38:06;;;;;;;7.60;4.35;;;11.50;99.90;;;;;;4920514;28;90093;-30
2023/03/22 10:40:34;;;;;;;8.63;5.05;;;11.50;99.90;;;;;;4920188;28;90193;-32
2023/03/22 10:43:24;;;;;;;7.32;4.82;;;11.50;99.90;;;;;;4919563;28;89354;-31
2023/03/22 10:45:52;;;;;;;7.15;4.63;;;11.50;99.90;;;;;;4920276;28;89224;-33
2023/03/22 10:48:31;;;;;;;8.10;4.63;;;11.40;99.90;;;;;;4923279;28;90018;-29
2023/03/22 10:50:58;;;;;;;8.52;5.82;;;11.40;99.90;;;;;;4923058;28;90670;-29
2023/03/22 10:53:31;;;;;;;10.88;4.93;;;11.30;99.90;;;;;;4923266;28;89863;-30
2023/03/22 10:55:57;;;;;;;7.22;5.00;;;11.30;99.90;;;;;;4922404;28;89712;-34
2023/03/22 10:58:29;;;;;;;11.40;4.93;;;11.30;99.90;;;;;;4923549;28;87812;-31
2023/03/22 11:01:02;;;;;;;10.15;5.43;;;11.20;99.90;;;;;;4922843;28;89877;-32
2023/03/22 11:03:43;;;;;;;5.70;3.92;;;11.20;99.90;;;;;;4923329;28;89920;-31
2023/03/22 11:06:23;;;;;;;6.30;5.38;;;11.20;99.90;;;;;;4923753;28;88749;-30
2023/03/22 11:08:57;;;;;;;8.00;4.47;;;11.10;99.90;;;;;;4923796;28;88622;-31
2023/03/22 11:11:27;;;;;;;7.38;4.38;;;11.20;99.90;;;;;;4923316;28;89776;-33
2023/03/22 11:14:05;;;;;;;9.30;4.50;;;11.20;99.90;;;;;;4923021;28;91710;-31
2023/03/22 11:16:46;;;;;;;12.77;6.78;;;11.20;99.90;;;;;;4923089;28;89774;-31
2023/03/22 11:19:23;;;;;;;12.60;4.75;;;11.20;99.90;;;;;;4923016;28;88217;-31
2023/03/22 11:21:50;;;;;;;8.43;4.13;;;11.20;99.90;;;;;;4922355;28;90391;-29
2023/03/22 11:24:17;;;;;;;6.40;4.78;;;11.20;99.90;;;;;;4922968;28;89877;-32
2023/03/22 11:27:05;;;;;;;14.63;5.55;;;11.20;99.90;;;;;;4922864;28;88916;-33
2023/03/22 11:29:41;;;;;;;4.93;4.17;;;11.20;99.90;;;;;;4923746;28;89776;-33
2023/03/22 11:32:20;;;;;;;7.75;5.75;;;11.20;99.90;;;;;;4923021;28;90594;-32
2023/03/22 11:34:46;;;;;;;9.95;4.78;;;11.20;99.90;;;;;;4920960;28;89486;-32
2023/03/22 11:37:16;;;;;;;9.90;5.43;;;11.10;99.90;;;;;;4922535;28;88839;-35
2023/03/22 11:39:48;;;;;;;7.00;4.30;;;11.10;99.90;;;;;;4923073;28;90470;-33
2023/03/22 11:42:19;;;;;;;5.00;4.50;;;11.10;99.90;;;;;;4922930;28;89825;-29
2023/03/22 11:44:45;;;;;;;6.68;4.85;;;11.10;99.90;;;;;;4922414;28;89747;-33
2023/03/22 11:47:12;;;;;;;12.05;5.45;;;11.00;99.90;;;;;;4922936;28;89563;-29
2023/03/22 11:49:47;;;;;;;7.38;4.65;;;11.10;99.90;;;;;;4923823;28;88803;-32
2023/03/22 11:52:20;;;;;;;10.20;5.00;;;11.00;99.90;;;;;;4922223;28;90338;-35
2023/03/22 11:54:47;;;;;;;8.27;4.53;;;11.00;99.90;;;;;;4952743;22;90411;-30
2023/03/22 11:57:17;;;;;;;8.00;5.43;;;11.00;99.90;;;;;;4921614;28;90497;-31
2023/03/22 11:59:59;;;;;;;9.43;4.78;;;11.10;99.90;;;;;;4922661;28;89078;-32
2023/03/22 12:02:33;;;;;;;6.43;4.78;;;11.10;99.90;;;;;;4922370;28;91321;-30
2023/03/22 12:05:32;;;;;;;6.10;4.75;;;11.10;99.90;;;;;;4918497;28;90272;-31
2023/03/22 12:08:08;;;;;;;10.38;4.05;;;11.10;99.90;;;;;;4909806;28;89957;-34
2023/03/22 12:10:42;;;;;;;11.98;4.20;;;11.00;99.90;;;;;;4922522;28;88644;-30
2023/03/22 12:13:29;;;;;;;9.05;4.50;;;11.10;99.90;;;;;;4922175;28;90885;-31
2023/03/22 12:16:01;;;;;;;7.50;4.43;;;11.00;99.90;;;;;;4921380;28;90117;-33
2023/03/22 12:18:40;;;;;;;7.30;4.25;;;11.00;99.90;;;;;;4922254;28;91463;-34
2023/03/22 12:21:10;;;;;;;7.38;4.38;;;11.10;99.90;;;;;;4922761;28;88414;-34
2023/03/22 12:23:36;;;;;;;7.07;4.95;;;11.00;99.90;;;;;;4922506;28;90088;-31
2023/03/22 12:26:38;;;;;;;6.25;3.88;;;11.10;99.90;;;;;;4921417;28;89659;-32
2023/03/22 12:29:13;;;;;;;11.45;4.45;;;11.10;99.90;;;;;;4889193;28;88984;-32
2023/03/22 12:31:50;;;;;;;8.13;4.20;;;11.00;99.90;;;;;;4921725;28;89929;-35
2023/03/22 12:34:24;;;;;;;7.95;4.70;;;11.00;99.90;;;;;;4921498;28;90168;-31
2023/03/22 12:36:53;;;;;;;5.18;4.32;;;11.00;99.90;;;;;;4922638;28;89092;-32
2023/03/22 12:39:22;;;;;;;8.35;4.88;;;11.00;99.90;;;;;;4921847;28;89843;-33
2023/03/22 12:41:51;;;;;;;9.10;5.22;;;11.00;99.90;;;;;;4921980;28;89497;-31
2023/03/22 12:44:39;;;;;;;4.82;3.20;;;11.00;99.90;;;;;;4921967;28;90011;-30
2023/03/22 12:47:15;;;;;;;6.03;4.22;;;11.00;99.90;;;;;;4921363;28;89965;-30
2023/03/22 12:50:00;;;;;;;8.30;5.30;;;11.00;99.90;;;;;;4915756;28;88472;-33
2023/03/22 12:52:35;;;;;;;5.95;4.47;;;11.00;99.90;;;;;;4909754;28;89360;-32
2023/03/22 12:55:02;;;;;;;7.80;4.53;;;11.00;99.90;;;;;;4918306;28;90094;-31
2023/03/22 12:57:28;;;;;;;6.25;4.00;;;11.00;99.90;;;;;;4919006;28;91698;-31
2023/03/22 12:59:57;;;;;;;12.18;4.72;;;11.00;99.90;;;;;;4919773;28;90610;-31